Flight Track Log - Related Links

Times and Time Zones

All times are in EDT time to prevent confusion due to time zone crossing. See the N915DE flight status page for this flight to view local times or setup timezone preferences in your user account.


Time Position Orientation Groundspeed Altitude Reporting Facility
EDT Latitude Longitude Course Direction KTS MPH feet Rate Location/Type
Sun 08:12:12 AM 30.3408 -97.5603 89° East 266 306 6,500  Level Houston Center
Sun 08:17:12 AM 30.3467 -97.0242 93° East 393 452 16,900 1,967 Climbing Houston Center
Sun 08:18:12 AM 30.3414 -96.8869 95° East 420 483 18,300 1,500 Climbing Houston Center
Sun 08:19:12 AM 30.3303 -96.7469 94° East 431 496 19,900 1,600 Climbing Houston Center
Sun 08:20:12 AM 30.3211 -96.5972 93° East 450 518 21,500 1,500 Climbing Houston Center
Sun 08:21:12 AM 30.3156 -96.4625 95° East 465 535 22,900 1,400 Climbing Houston Center
Sun 08:22:12 AM 30.3042 -96.3056 78° East 470 541 24,300 1,300 Climbing Houston Center
Sun 08:23:12 AM 30.3322 -96.1578 70° East 483 556 25,500 1,200 Climbing Houston Center
Sun 08:24:12 AM 30.3789 -96.0081 71° East 483 556 26,700 1,250 Climbing Houston Center
Sun 08:25:12 AM 30.4233 -95.8583 69° East 483 556 28,000 1,200 Climbing Houston Center
Sun 08:26:12 AM 30.4714 -95.7111 71° East 483 556 29,100 1,100 Climbing Houston Center
Sun 08:27:12 AM 30.5178 -95.5586 71° East 488 562 30,200 1,150 Climbing Houston Center
Sun 08:28:12 AM 30.5683 -95.3919 70° East 488 562 31,400 1,050 Climbing Houston Center
Sun 08:29:12 AM 30.6142 -95.2414 71° East 488 562 32,300 800 Climbing Houston Center
Sun 08:30:12 AM 30.6597 -95.0911 70° East 488 562 33,000 347 Climbing Houston Center
Sun 08:31:13 AM 30.7053 -94.9431 71° East 488 562 33,000  Level Houston Center
Sun 08:32:12 AM 30.7506 -94.7922 70° East 488 562 33,000  Level Houston Center
Sun 08:33:13 AM 30.7933 -94.6558 71° East 493 567 33,000  Level Houston Center
Sun 08:34:12 AM 30.8381 -94.5072 72° East 493 567 33,000  Level Houston Center
Sun 08:35:12 AM 30.8811 -94.3514 70° East 493 567 33,000  Level Houston Center
Sun 08:36:13 AM 30.9322 -94.1881 71° East 493 567 33,000  Level Houston Center
Sun 08:37:12 AM 30.9722 -94.0558 72° East 486 559 33,000  Level Houston Center
Sun 08:38:12 AM 31.0144 -93.8994 70° East 491 565 33,000  Level Houston Center
Sun 08:39:12 AM 31.0606 -93.7503 71° East 496 571 33,000  Level Houston Center
Sun 08:40:12 AM 31.1047 -93.5958 72° East 496 571 33,000  Level Houston Center
Sun 08:41:12 AM 31.1486 -93.4417 73° East 496 571 33,000  Level Houston Center
Sun 08:42:12 AM 31.1900 -93.2869 71° East 496 571 33,000  Level Houston Center
Sun 08:43:13 AM 31.2336 -93.1347 71° East 496 571 33,000  Level Houston Center
Sun 08:44:12 AM 31.2789 -92.9825 72° East 496 571 33,000  Level Houston Center
Sun 08:45:12 AM 31.3222 -92.8275 72° East 496 571 33,000  Level Houston Center
Sun 08:46:12 AM 31.3650 -92.6700 71° East 496 571 33,000  Level Houston Center
Sun 08:47:12 AM 31.4100 -92.5197 72° East 496 571 33,000  Level Houston Center
Sun 08:48:12 AM 31.4525 -92.3642 72° East 496 571 33,000  Level Houston Center
Sun 08:49:12 AM 31.4972 -92.1992 71° East 491 565 33,000  Level Houston Center
Sun 08:50:12 AM 31.5414 -92.0483 73° East 491 565 33,000  Level Houston Center
Sun 08:51:12 AM 31.5794 -91.9047 72° East 497 572 33,000  Level Houston Center
Sun 08:52:12 AM 31.6214 -91.7489 72° East 497 572 33,000  Level Houston Center
Sun 08:53:44 AM 31.6919 -91.4950 73° East 507 583 33,000  Level Memphis Center
Sun 08:54:44 AM 31.7328 -91.3417 73° East 501 577 33,000  Level Memphis Center
Sun 08:55:44 AM 31.7714 -91.1906 73° East 490 564 33,000  Level Memphis Center
Sun 08:56:44 AM 31.8122 -91.0319 72° East 490 564 33,000  Level Memphis Center
Sun 08:57:44 AM 31.8544 -90.8831 75° East 490 564 33,000  Level Memphis Center
Sun 08:58:44 AM 31.8906 -90.7292 73° East 485 558 33,000  Level Memphis Center
Sun 08:59:44 AM 31.9306 -90.5753 72° East 485 558 33,000  Level Memphis Center
Sun 09:00:44 AM 31.9725 -90.4233 73° East 485 558 33,000  Level Memphis Center
Sun 09:01:44 AM 32.0122 -90.2692 73° East 485 558 33,000  Level Memphis Center
Sun 09:02:44 AM 32.0517 -90.1147 74° East 480 552 33,000  Level Memphis Center
Sun 09:03:44 AM 32.0889 -89.9600 73° East 480 552 33,000  Level Memphis Center
Sun 09:04:44 AM 32.1239 -89.8225 73° East 480 552 33,000  Level Memphis Center
Sun 09:05:44 AM 32.1628 -89.6728 74° East 480 552 33,000  Level Memphis Center
Sun 09:06:44 AM 32.1994 -89.5203 74° East 480 552 33,000  Level Memphis Center
Sun 09:07:44 AM 32.2358 -89.3700 73° East 480 552 33,000  Level Memphis Center
Sun 09:08:44 AM 32.2761 -89.2147 74° East 480 552 33,000  Level Memphis Center
Sun 09:09:44 AM 32.3122 -89.0644 74° East 480 552 33,000  Level Memphis Center
Sun 09:10:44 AM 32.3503 -88.9114 75° East 480 552 33,000  Level Memphis Center
Sun 09:11:44 AM 32.3839 -88.7583 82° East 475 547 33,000  Level Memphis Center
Sun 09:13:29 AM 32.4161 -88.4750 82° East 486 559 33,000  Level Atlanta Center
Sun 09:14:29 AM 32.4342 -88.3183 81° East 479 551 33,000  Level Atlanta Center
Sun 09:15:29 AM 32.4542 -88.1594 81° East 479 551 33,000  Level Atlanta Center
Sun 09:16:29 AM 32.4739 -88.0078 77° East 479 551 33,000  Level Atlanta Center
Sun 09:17:29 AM 32.5014 -87.8661 75° East 484 557 33,000  Level Atlanta Center
Sun 09:18:29 AM 32.5350 -87.7147 75° East 477 549 33,000  Level Atlanta Center
Sun 09:19:29 AM 32.5708 -87.5608 76° East 477 549 33,000  Level Atlanta Center
Sun 09:20:29 AM 32.6022 -87.4094 76° East 471 542 33,000  Level Atlanta Center
Sun 09:21:29 AM 32.6358 -87.2431 76° East 471 542 33,000  Level Atlanta Center
Sun 09:22:29 AM 32.6692 -87.0886 75° East 471 542 33,000 -500 Level Atlanta Center
Sun 09:23:29 AM 32.7019 -86.9392 77° East 471 542 32,000 -1,300 Descending Atlanta Center
Sun 09:24:29 AM 32.7325 -86.7872 77° East 471 542 30,400 -1,900 Descending Atlanta Center
Sun 09:25:29 AM 32.7631 -86.6350 76° East 471 542 28,200 -2,100 Descending Atlanta Center
Sun 09:26:29 AM 32.7931 -86.4900 75° East 462 532 26,200 -2,050 Descending Atlanta Center
Sun 09:27:29 AM 32.8250 -86.3525 74° East 440 506 24,100 -1,100 Descending Atlanta Center
Sun 09:28:29 AM 32.8542 -86.2322 71° East 424 488 24,000 -150 Descending Atlanta Center
Sun 09:29:29 AM 32.8919 -86.0994 72° East 424 488 23,800 -1,150 Descending Atlanta Center
Sun 09:30:29 AM 32.9297 -85.9642 72° East 424 488 21,700 -1,950 Descending Atlanta Center
Sun 09:31:29 AM 32.9672 -85.8264 72° East 430 495 19,900 -1,750 Descending Atlanta Center
Sun 09:32:29 AM 33.0047 -85.6886 72° East 430 495 18,200 -1,850 Descending Atlanta Center
Sun 09:33:29 AM 33.0442 -85.5456 72° East 425 489 16,200 -1,650 Descending Atlanta Center
Sun 09:34:29 AM 33.0789 -85.4197 71° East 412 474 14,900 -1,545 Descending Atlanta Center
Sun 09:35:41 AM 33.1136 -85.2961 73° East 397 457 12,800 -1,318 Descending Atlanta Center
Sun 09:36:41 AM 33.1506 -85.1478 70° East 391 450 12,000 -400 Descending Atlanta Center
Sun 09:37:41 AM 33.1850 -85.0317 41° Northeast 378 435 12,000 -400 Level Atlanta Center
Sun 09:38:41 AM 33.2503 -84.9628 20° North 307 353 11,200 -1,250 Descending Atlanta Center
Sun 09:39:41 AM 33.3319 -84.9264 11° North 307 353 9,500 -1,600 Descending Atlanta Center
Sun 09:40:41 AM 33.4156 -84.9075 North 302 348 8,000 -750 Descending Atlanta Center
Sun 09:41:41 AM 33.5011 -84.9033 North 296 341 8,000 -550 Level Atlanta Center
Sun 09:42:41 AM 33.5806 -84.8967 31° Northeast 290 334 6,900 -500 Descending Atlanta Center
Sun 09:43:41 AM 33.6350 -84.8572 95° East 240 276 7,000 -200 Climbing Atlanta Center
Sun 09:44:41 AM 33.6292 -84.7847 87° East 176 203 6,500 -750 Descending Atlanta Center
Sun 09:45:41 AM 33.6317 -84.7300 89° East 184 212 5,500 -1,176 Descending Atlanta Center
Sun 09:47:14 AM 33.6333 -84.6000 90° East 203 234 3,500 -1,184 Descending Atlanta TRACON
Sun 09:48:08 AM 33.6333 -84.5500 90° East 173 199 2,600 -842 Descending Atlanta TRACON
Sun 09:49:08 AM 33.6333 -84.5000 90° East 128 147 1,900 -737 Descending Atlanta TRACON
Sun 09:50:02 AM 33.6333 -84.4667 84° East 132 152 1,200 -778 Descending Atlanta TRACON

Login

Don't have an account? Register now (free) for customized features, flight alerts, and more!